Time;durP1;ratioP1;P1;durP2;ratioP2;P2;SDS_P1;SDS_P2;PMS_P1;PMS_P2;Temp;Humidity;BMP_temperature;BMP_pressure;BME280_temperature;BME280_humidity;BME280_pressure;Samples;Min_cycle;Max_cycle;Signal;HPM_P1;HPM_P2
2022/12/21 00:01:30;;;;;;;;;;;-0.50;99.90;;;;;;5035479;28;20388;-79
2022/12/21 00:04:00;;;;;;;;;;;-0.40;99.90;;;;;;5035184;28;20353;-81
2022/12/21 00:06:28;;;;;;;;;;;-0.40;99.90;;;;;;5032912;28;20024;-79
2022/12/21 00:08:54;;;;;;;;;;;-0.40;99.90;;;;;;5033203;28;19909;-80
2022/12/21 00:11:23;;;;;;;;;;;-0.30;99.90;;;;;;5035780;28;19921;-79
2022/12/21 00:13:49;;;;;;;;;;;-0.40;99.90;;;;;;5034909;28;19916;-79
2022/12/21 00:16:16;;;;;;;;;;;-0.30;99.90;;;;;;5034624;28;19909;-79
2022/12/21 00:18:42;;;;;;;;;;;-0.30;99.90;;;;;;5035600;28;20350;-80
2022/12/21 00:21:18;;;;;;;;;;;-0.40;99.90;;;;;;5034343;28;20109;-80
2022/12/21 00:23:45;;;;;;;;;;;-0.30;99.90;;;;;;5034308;28;19968;-80
2022/12/21 00:26:12;;;;;;;;;;;-0.30;99.90;;;;;;5034510;28;19924;-80
2022/12/21 00:28:37;;;;;;;;;;;-0.30;99.90;;;;;;5034280;28;19909;-80
2022/12/21 00:31:04;;;;;;;;;;;-0.30;99.90;;;;;;5035015;28;19965;-80
2022/12/21 00:33:30;;;;;;;;;;;-0.30;99.90;;;;;;5035542;28;20331;-80
2022/12/21 00:35:55;;;;;;;;;;;-0.30;99.90;;;;;;5035724;28;19913;-81
2022/12/21 00:38:21;;;;;;;;;;;-0.30;99.90;;;;;;5035208;28;20001;-80
2022/12/21 00:40:55;;;;;;;;;;;-0.30;99.90;;;;;;5037980;28;19917;-80
2022/12/21 00:43:20;;;;;;;;;;;-0.30;99.90;;;;;;5057978;23;19920;-69
2022/12/21 00:45:46;;;;;;;;;;;-0.30;99.90;;;;;;5077740;28;19931;-68
2022/12/21 00:48:11;;;;;;;;;;;-0.30;99.90;;;;;;5077389;28;19943;-68
2022/12/21 00:50:37;;;;;;;;;;;-0.30;99.90;;;;;;5077596;28;19966;-69
2022/12/21 00:53:02;;;;;;;;;;;-0.40;99.90;;;;;;5077284;28;19966;-69
2022/12/21 00:55:28;;;;;;;;;;;-0.40;99.90;;;;;;5077559;28;19915;-69
2022/12/21 00:57:53;;;;;;;;;;;-0.40;99.90;;;;;;5077784;28;19940;-69
2022/12/21 01:00:19;;;;;;;;;;;-0.40;99.90;;;;;;5077159;28;20365;-69
2022/12/21 01:02:45;;;;;;;;;;;-0.50;99.90;;;;;;5077075;28;19912;-69
2022/12/21 01:05:10;;;;;;;;;;;-0.50;99.90;;;;;;5076960;28;19917;-69
2022/12/21 01:07:36;;;;;;;;;;;-0.60;99.90;;;;;;5076981;28;19919;-69
2022/12/21 01:10:01;;;;;;;;;;;-0.60;99.90;;;;;;5076934;28;19916;-68
2022/12/21 01:12:27;;;;;;;;;;;-0.60;99.90;;;;;;5076954;28;20326;-68
2022/12/21 01:14:52;;;;;;;;;;;-0.60;99.90;;;;;;5077051;28;19909;-68
2022/12/21 01:17:18;;;;;;;;;;;-0.60;99.90;;;;;;5077043;28;19967;-69
2022/12/21 01:19:43;;;;;;;;;;;-0.60;99.90;;;;;;5076810;28;19927;-69
2022/12/21 01:22:09;;;;;;;;;;;-0.60;99.90;;;;;;5076996;28;19909;-69
2022/12/21 01:24:34;;;;;;;;;;;-0.60;99.90;;;;;;5076088;28;19913;-69
2022/12/21 01:27:00;;;;;;;;;;;-0.60;99.90;;;;;;5076612;28;20011;-69
2022/12/21 01:29:25;;;;;;;;;;;-0.50;99.90;;;;;;5076611;28;19944;-69
2022/12/21 01:31:51;;;;;;;;;;;-0.60;99.90;;;;;;5076547;28;19917;-69
2022/12/21 01:34:16;;;;;;;;;;;-0.60;99.90;;;;;;5076571;28;19962;-69
2022/12/21 01:36:42;;;;;;;;;;;-0.60;99.90;;;;;;5076523;28;19916;-69
2022/12/21 01:39:08;;;;;;;;;;;-0.50;99.90;;;;;;5076495;28;19913;-69
2022/12/21 01:41:33;;;;;;;;;;;-0.50;99.90;;;;;;5076495;28;19955;-68
2022/12/21 01:44:00;;;;;;;;;;;-0.50;99.90;;;;;;5076268;28;19927;-69
2022/12/21 01:46:36;;;;;;;;;;;-0.50;99.90;;;;;;5076545;28;19916;-68
2022/12/21 01:49:02;;;;;;;;;;;-0.50;99.90;;;;;;5076277;28;20338;-69
2022/12/21 01:51:27;;;;;;;;;;;-0.50;99.90;;;;;;5075662;28;19951;-68
2022/12/21 01:53:55;;;;;;;;;;;-0.50;99.90;;;;;;5076675;28;19999;-69
2022/12/21 01:56:23;;;;;;;;;;;-0.50;99.90;;;;;;5075020;28;19919;-69
2022/12/21 01:58:49;;;;;;;;;;;-0.50;99.90;;;;;;5076114;28;20364;-69
2022/12/21 02:01:14;;;;;;;;;;;-0.50;99.90;;;;;;5076014;28;19915;-68
2022/12/21 02:03:43;;;;;;;;;;;-0.50;99.90;;;;;;5076378;28;20391;-68
2022/12/21 02:06:08;;;;;;;;;;;-0.50;99.90;;;;;;5076230;28;19944;-68
2022/12/21 02:08:34;;;;;;;;;;;-0.50;99.90;;;;;;5076236;28;19908;-68
2022/12/21 02:11:00;;;;;;;;;;;-0.50;99.90;;;;;;5075848;28;19913;-68
2022/12/21 02:13:26;;;;;;;;;;;-0.50;99.90;;;;;;5075824;28;19908;-68
2022/12/21 02:16:00;;;;;;;;;;;-0.60;99.90;;;;;;5075799;28;19919;-68
2022/12/21 02:18:55;;;;;;;;;;;-0.60;99.90;;;;;;5076322;28;19916;-68
2022/12/21 02:21:21;;;;;;;;;;;-0.60;99.90;;;;;;5074490;22;20388;-80
2022/12/21 02:23:49;;;;;;;;;;;-0.60;99.90;;;;;;5060784;28;20323;-80
2022/12/21 02:26:27;;;;;;;;;;;-0.60;99.90;;;;;;5060082;28;19992;-80
2022/12/21 02:29:07;;;;;;;;;;;-0.60;99.90;;;;;;5060711;28;19908;-80
2022/12/21 02:31:36;;;;;;;;;;;-0.60;99.90;;;;;;5060510;28;19912;-81
2022/12/21 02:34:10;;;;;;;;;;;-0.60;99.90;;;;;;5060462;28;19909;-80
2022/12/21 02:36:36;;;;;;;;;;;-0.60;99.90;;;;;;5059119;28;20007;-81
2022/12/21 02:39:21;;;;;;;;;;;-0.60;99.90;;;;;;5060018;28;19944;-80
2022/12/21 02:41:59;;;;;;;;;;;-0.70;99.90;;;;;;5059613;28;19908;-81
2022/12/21 02:44:25;;;;;;;;;;;-0.70;99.90;;;;;;5058988;28;19916;-81
2022/12/21 02:47:08;;;;;;;;;;;-0.80;99.90;;;;;;5060120;28;20365;-80
2022/12/21 02:49:34;;;;;;;;;;;-0.80;99.90;;;;;;5064332;28;19897;-81
2022/12/21 02:52:03;;;;;;;;;;;-0.80;99.90;;;;;;5047278;28;20380;-81
2022/12/21 02:54:29;;;;;;;;;;;-0.80;99.90;;;;;;5042620;28;19916;-81
2022/12/21 02:56:54;;;;;;;;;;;-0.80;99.90;;;;;;5042185;28;19977;-80
2022/12/21 02:59:23;;;;;;;;;;;-0.70;99.90;;;;;;5041689;28;19913;-80
2022/12/21 03:02:07;;;;;;;;;;;-0.80;99.90;;;;;;5042046;28;20399;-81
2022/12/21 03:04:41;;;;;;;;;;;-0.80;99.90;;;;;;5040209;28;20383;-81
2022/12/21 03:07:22;;;;;;;;;;;-0.80;99.90;;;;;;5040448;28;19980;-81
2022/12/21 03:09:54;;;;;;;;;;;-0.80;99.90;;;;;;5041365;28;19909;-81
2022/12/21 03:12:43;;;;;;;;;;;-0.70;99.90;;;;;;5056194;28;19910;-80
2022/12/21 03:15:21;;;;;;;;;;;-0.70;99.90;;;;;;5041334;28;19916;-81
2022/12/21 03:17:56;;;;;;;;;;;-0.80;99.90;;;;;;5040588;28;20376;-81
2022/12/21 03:20:36;;;;;;;;;;;-0.80;99.90;;;;;;5039153;28;19917;-81
2022/12/21 03:23:10;;;;;;;;;;;-0.80;99.90;;;;;;5020395;28;19918;-81
2022/12/21 03:25:56;;;;;;;;;;;-0.80;99.90;;;;;;5020068;28;19917;-81
2022/12/21 03:28:27;;;;;;;;;;;-0.80;99.90;;;;;;5013307;28;19913;-80
2022/12/21 03:30:54;;;;;;;;;;;-0.80;99.90;;;;;;5020337;28;19948;-81
2022/12/21 03:33:22;;;;;;;;;;;-0.80;99.90;;;;;;5020342;28;19933;-80
2022/12/21 03:35:59;;;;;;;;;;;-0.80;99.90;;;;;;5025531;28;19916;-83
2022/12/21 03:38:30;;;;;;;;;;;-0.80;99.90;;;;;;5028184;28;19910;-80
2022/12/21 03:40:59;;;;;;;;;;;-0.80;99.90;;;;;;5028434;28;19910;-81
2022/12/21 03:43:33;;;;;;;;;;;-0.80;99.90;;;;;;5023681;28;19917;-82
2022/12/21 03:46:09;;;;;;;;;;;-0.80;99.90;;;;;;5037245;28;19920;-82
2022/12/21 03:48:44;;;;;;;;;;;-0.70;99.90;;;;;;5035779;28;19913;-82
2022/12/21 03:51:16;;;;;;;;;;;-0.70;99.90;;;;;;5021427;28;19918;-82
2022/12/21 03:54:05;;;;;;;;;;;-0.70;99.90;;;;;;5033356;28;19968;-82
2022/12/21 03:56:32;;;;;;;;;;;-0.70;99.90;;;;;;5035004;28;20357;-81
2022/12/21 03:58:59;;;;;;;;;;;-0.70;99.90;;;;;;5037160;28;20380;-81
2022/12/21 04:01:34;;;;;;;;;;;-0.60;99.90;;;;;;5035421;28;19960;-82
2022/12/21 04:04:04;;;;;;;;;;;-0.60;99.90;;;;;;5037624;28;19923;-82
2022/12/21 04:06:31;;;;;;;;;;;-0.60;99.90;;;;;;5035244;28;19913;-82
2022/12/21 04:08:57;;;;;;;;;;;-0.60;99.90;;;;;;5037110;28;20387;-82
2022/12/21 04:14:11;;;;;;;;;;;-0.60;99.90;;;;;;5027153;28;19904;-81
2022/12/21 04:16:37;;;;;;;;;;;-0.60;99.90;;;;;;5037538;28;19913;-82
2022/12/21 04:21:46;;;;;;;;;;;-0.60;99.90;;;;;;5045915;28;19932;-82
2022/12/21 04:29:40;;;;;;;;;;;-0.60;99.90;;;;;;5030866;28;19916;-82
2022/12/21 04:32:06;;;;;;;;;;;-0.60;99.90;;;;;;5029288;28;19898;-82
2022/12/21 04:34:31;;;;;;;;;;;-0.60;99.90;;;;;;5017139;28;19968;-82
2022/12/21 04:39:41;;;;;;;;;;;-0.60;99.90;;;;;;5037495;28;19921;-82
2022/12/21 04:42:07;;;;;;;;;;;-0.60;99.90;;;;;;5035507;28;19913;-82
2022/12/21 04:44:32;;;;;;;;;;;-0.60;99.90;;;;;;5031724;28;19913;-81
2022/12/21 04:46:58;;;;;;;;;;;-0.60;99.90;;;;;;5022995;28;19918;-82
2022/12/21 04:49:23;;;;;;;;;;;-0.60;99.90;;;;;;5021200;28;20281;-81
2022/12/21 04:51:49;;;;;;;;;;;-0.60;99.90;;;;;;5036717;28;20026;-81
2022/12/21 04:54:15;;;;;;;;;;;-0.60;99.90;;;;;;5037175;28;19909;-81
2022/12/21 04:56:40;;;;;;;;;;;-0.60;99.90;;;;;;5019224;28;19948;-81
2022/12/21 04:59:06;;;;;;;;;;;-0.60;99.90;;;;;;5016781;28;19967;-81
2022/12/21 05:01:31;;;;;;;;;;;-0.60;99.90;;;;;;5018144;28;19956;-81
2022/12/21 05:03:58;;;;;;;;;;;-0.60;99.90;;;;;;5026629;28;19920;-81
2022/12/21 05:06:23;;;;;;;;;;;-0.60;99.90;;;;;;5036771;28;19971;-81
2022/12/21 05:08:49;;;;;;;;;;;-0.60;99.90;;;;;;5019049;28;19976;-81
2022/12/21 05:11:21;;;;;;;;;;;-0.60;99.90;;;;;;5027431;28;19898;-81
2022/12/21 05:13:47;;;;;;;;;;;-0.60;99.90;;;;;;5053514;28;19917;-82
2022/12/21 05:16:14;;;;;;;;;;;-0.60;99.90;;;;;;5040439;28;19916;-82
2022/12/21 05:18:40;;;;;;;;;;;-0.70;99.90;;;;;;5040175;28;19931;-82
2022/12/21 05:21:05;;;;;;;;;;;-0.70;99.90;;;;;;5035009;28;20388;-82
2022/12/21 05:23:31;;;;;;;;;;;-0.70;99.90;;;;;;5019420;28;19960;-82
2022/12/21 05:25:56;;;;;;;;;;;-0.70;99.90;;;;;;5030434;28;19921;-81
2022/12/21 05:28:22;;;;;;;;;;;-0.70;99.90;;;;;;5020944;28;20399;-82
2022/12/21 05:30:47;;;;;;;;;;;-0.70;99.90;;;;;;5030100;28;20325;-82
2022/12/21 05:33:13;;;;;;;;;;;-0.80;99.90;;;;;;5019792;28;19918;-81
2022/12/21 05:35:39;;;;;;;;;;;-0.80;99.90;;;;;;5021810;28;19920;-82
2022/12/21 05:38:06;;;;;;;;;;;-0.80;99.90;;;;;;5021648;28;19909;-81
2022/12/21 05:40:32;;;;;;;;;;;-0.80;99.90;;;;;;5021920;28;20277;-81
2022/12/21 05:42:58;;;;;;;;;;;-0.80;99.90;;;;;;5022716;28;19917;-81
2022/12/21 05:45:24;;;;;;;;;;;-0.80;99.90;;;;;;5032115;28;19924;-81
2022/12/21 05:47:49;;;;;;;;;;;-0.80;99.90;;;;;;5024547;28;19913;-82
2022/12/21 05:50:15;;;;;;;;;;;-0.80;99.90;;;;;;5039951;28;19913;-81
2022/12/21 05:52:40;;;;;;;;;;;-0.90;99.90;;;;;;5040162;28;19920;-81
2022/12/21 05:55:06;;;;;;;;;;;-0.90;99.90;;;;;;5024003;28;19918;-80
2022/12/21 05:57:32;;;;;;;;;;;-0.80;99.90;;;;;;5020514;28;20008;-81
2022/12/21 05:59:57;;;;;;;;;;;-0.80;99.90;;;;;;5020393;28;19949;-81
2022/12/21 06:02:23;;;;;;;;;;;-0.80;99.90;;;;;;5019699;28;19914;-81
2022/12/21 06:04:48;;;;;;;;;;;-0.80;99.90;;;;;;5020695;28;19918;-81
2022/12/21 06:07:14;;;;;;;;;;;-0.80;99.90;;;;;;5020633;28;19928;-81
2022/12/21 06:09:39;;;;;;;;;;;-0.80;99.90;;;;;;5020484;28;19921;-81
2022/12/21 06:12:05;;;;;;;;;;;-0.80;99.90;;;;;;5020372;28;19921;-81
2022/12/21 06:14:30;;;;;;;;;;;-0.70;99.90;;;;;;5018574;28;19977;-82
2022/12/21 06:16:56;;;;;;;;;;;-0.80;99.90;;;;;;5019751;28;20008;-82
2022/12/21 06:19:21;;;;;;;;;;;-0.70;99.90;;;;;;5020510;28;19914;-82
2022/12/21 06:21:47;;;;;;;;;;;-0.70;99.90;;;;;;5038685;28;19921;-81
2022/12/21 06:24:13;;;;;;;;;;;-0.80;99.90;;;;;;5040148;28;20432;-81
2022/12/21 06:26:38;;;;;;;;;;;-0.80;99.90;;;;;;5040227;28;19917;-81
2022/12/21 06:29:04;;;;;;;;;;;-0.80;99.90;;;;;;5039751;28;19913;-81
2022/12/21 06:31:29;;;;;;;;;;;-0.80;99.90;;;;;;5038150;28;20005;-80
2022/12/21 06:33:55;;;;;;;;;;;-0.70;99.90;;;;;;5039304;28;19920;-82
2022/12/21 06:36:21;;;;;;;;;;;-0.70;99.90;;;;;;5039444;28;19920;-81
2022/12/21 06:38:46;;;;;;;;;;;-0.60;99.90;;;;;;5039790;28;19913;-81
2022/12/21 06:41:13;;;;;;;;;;;-0.50;99.90;;;;;;5039592;28;19999;-81
2022/12/21 06:43:40;;;;;;;;;;;-0.50;99.90;;;;;;5040066;28;19959;-82
2022/12/21 06:46:07;;;;;;;;;;;-0.50;99.90;;;;;;5036603;28;20347;-81
2022/12/21 06:48:33;;;;;;;;;;;-0.50;99.90;;;;;;5022200;28;19913;-81
2022/12/21 06:51:18;;;;;;;;;;;-0.50;99.90;;;;;;5023965;28;19909;-81
2022/12/21 06:53:45;;;;;;;;;;;-0.50;99.90;;;;;;5020215;28;19913;-81
2022/12/21 06:56:14;;;;;;;;;;;-0.50;99.90;;;;;;5032390;28;19995;-81
2022/12/21 06:58:40;;;;;;;;;;;-0.50;99.90;;;;;;5039057;28;19976;-80
2022/12/21 07:01:05;;;;;;;;;;;-0.50;99.90;;;;;;5039902;28;19917;-82
2022/12/21 07:03:31;;;;;;;;;;;-0.50;99.90;;;;;;5039339;28;19963;-81
2022/12/21 07:05:57;;;;;;;;;;;-0.40;99.90;;;;;;5037206;28;19913;-81
2022/12/21 07:08:22;;;;;;;;;;;-0.40;99.90;;;;;;5038636;28;19913;-81
2022/12/21 07:10:48;;;;;;;;;;;-0.40;99.90;;;;;;5021005;28;19913;-81
2022/12/21 07:13:13;;;;;;;;;;;-0.40;99.90;;;;;;5038886;28;19917;-81
2022/12/21 07:15:39;;;;;;;;;;;-0.30;99.90;;;;;;5037466;28;19949;-81
2022/12/21 07:18:04;;;;;;;;;;;-0.30;99.90;;;;;;5039804;28;19916;-81
2022/12/21 07:20:30;;;;;;;;;;;-0.30;99.90;;;;;;5039038;28;19920;-81
2022/12/21 07:22:56;;;;;;;;;;;-0.30;99.90;;;;;;5039529;28;20266;-82
2022/12/21 07:25:21;;;;;;;;;;;-0.20;99.90;;;;;;5037616;28;19913;-80
2022/12/21 07:27:47;;;;;;;;;;;-0.20;99.90;;;;;;5035960;28;20028;-81
2022/12/21 07:30:13;;;;;;;;;;;-0.20;99.90;;;;;;5037504;28;19945;-80
2022/12/21 07:32:39;;;;;;;;;;;-0.20;99.90;;;;;;5036559;28;19909;-81
2022/12/21 07:35:05;;;;;;;;;;;-0.20;99.90;;;;;;5058183;28;19965;-80
2022/12/21 07:37:30;;;;;;;;;;;-0.20;99.90;;;;;;5039379;28;20000;-82
2022/12/21 07:39:56;;;;;;;;;;;-0.20;99.90;;;;;;5022243;28;19920;-82
2022/12/21 07:42:21;;;;;;;;;;;-0.10;99.90;;;;;;5019793;28;20393;-82
2022/12/21 07:44:47;;;;;;;;;;;-0.10;99.90;;;;;;5020967;28;20293;-81
2022/12/21 07:47:12;;;;;;;;;;;-0.10;99.90;;;;;;5021305;28;20389;-82
2022/12/21 07:49:38;;;;;;;;;;;-0.10;99.90;;;;;;5019453;28;20329;-82
2022/12/21 07:52:04;;;;;;;;;;;-0.10;99.90;;;;;;5020159;28;19932;-81
2022/12/21 07:54:29;;;;;;;;;;;-0.10;99.90;;;;;;5020210;28;19909;-80
2022/12/21 07:56:55;;;;;;;;;;;0.00;99.90;;;;;;5019919;28;19913;-81
2022/12/21 07:59:20;;;;;;;;;;;0.00;99.90;;;;;;5019656;28;19913;-81
2022/12/21 08:01:46;;;;;;;;;;;0.00;99.90;;;;;;5020530;28;19917;-82
2022/12/21 08:04:11;;;;;;;;;;;0.00;99.90;;;;;;5020321;28;19985;-81
2022/12/21 08:06:37;;;;;;;;;;;0.00;99.90;;;;;;5020294;28;19924;-81
2022/12/21 08:09:03;;;;;;;;;;;0.00;99.90;;;;;;5020619;28;19913;-82
2022/12/21 08:11:29;;;;;;;;;;;0.10;99.90;;;;;;5019851;28;20337;-81
2022/12/21 08:13:55;;;;;;;;;;;0.10;99.90;;;;;;5019268;28;19917;-81
2022/12/21 08:16:21;;;;;;;;;;;0.10;99.90;;;;;;5018536;28;20297;-81
2022/12/21 08:18:46;;;;;;;;;;;0.10;99.90;;;;;;5000688;28;19918;-81
2022/12/21 08:21:12;;;;;;;;;;;0.10;99.90;;;;;;5012551;28;19921;-80
2022/12/21 08:23:39;;;;;;;;;;;0.10;99.90;;;;;;5055801;28;19913;-81
2022/12/21 08:26:05;;;;;;;;;;;0.10;99.90;;;;;;5056874;28;19921;-80
2022/12/21 08:28:31;;;;;;;;;;;0.20;99.90;;;;;;5056261;28;20351;-80
2022/12/21 08:31:04;;;;;;;;;;;0.20;99.90;;;;;;5056632;28;19913;-81
2022/12/21 08:33:30;;;;;;;;;;;0.20;99.90;;;;;;5055300;28;19916;-80
2022/12/21 08:35:56;;;;;;;;;;;0.20;99.90;;;;;;5056716;28;19913;-80
2022/12/21 08:38:22;;;;;;;;;;;0.30;99.90;;;;;;5055868;28;20387;-80
2022/12/21 08:40:47;;;;;;;;;;;0.30;99.90;;;;;;5055984;28;19909;-81
2022/12/21 08:43:13;;;;;;;;;;;0.30;99.90;;;;;;5055767;28;19939;-81
2022/12/21 08:45:39;;;;;;;;;;;0.30;99.90;;;;;;5038181;28;19927;-81
2022/12/21 08:48:05;;;;;;;;;;;0.40;99.90;;;;;;5056211;28;19920;-81
2022/12/21 08:50:30;;;;;;;;;;;0.50;99.90;;;;;;5056783;28;19912;-81
2022/12/21 08:52:56;;;;;;;;;;;0.50;99.90;;;;;;5055273;28;19956;-81
2022/12/21 08:55:22;;;;;;;;;;;0.60;99.90;;;;;;5055737;28;19916;-80
2022/12/21 08:57:47;;;;;;;;;;;0.60;99.90;;;;;;5056444;28;19909;-80
2022/12/21 09:00:13;;;;;;;;;;;0.70;99.90;;;;;;5055125;28;19935;-81
2022/12/21 09:02:38;;;;;;;;;;;0.80;99.90;;;;;;5061036;28;19952;-80
2022/12/21 09:05:05;;;;;;;;;;;0.80;99.90;;;;;;5060937;28;19945;-80
2022/12/21 09:07:30;;;;;;;;;;;0.90;99.90;;;;;;5063159;28;19943;-81
2022/12/21 09:09:56;;;;;;;;;;;0.90;99.90;;;;;;5063461;28;19909;-81
2022/12/21 09:12:21;;;;;;;;;;;0.90;99.90;;;;;;5063425;28;19952;-81
2022/12/21 09:14:47;;;;;;;;;;;0.90;99.90;;;;;;5061830;28;19913;-81
2022/12/21 09:17:12;;;;;;;;;;;1.00;99.90;;;;;;5063205;28;19909;-81
2022/12/21 09:19:39;;;;;;;;;;;1.00;99.90;;;;;;5059012;28;20391;-80
2022/12/21 09:22:04;;;;;;;;;;;1.10;99.90;;;;;;5050589;28;19921;-81
2022/12/21 09:24:30;;;;;;;;;;;1.10;99.90;;;;;;5063265;28;19913;-81
2022/12/21 09:26:55;;;;;;;;;;;1.10;99.90;;;;;;5063807;28;20555;-81
2022/12/21 09:29:23;;;;;;;;;;;1.10;99.90;;;;;;5064789;28;19962;-80
2022/12/21 09:31:50;;;;;;;;;;;1.10;99.90;;;;;;5061410;28;19920;-81
2022/12/21 09:34:16;;;;;;;;;;;1.10;99.90;;;;;;5062336;28;19916;-81
2022/12/21 09:36:42;;;;;;;;;;;1.10;99.90;;;;;;5042040;28;19909;-81
2022/12/21 09:39:07;;;;;;;;;;;1.10;99.90;;;;;;5027692;28;19936;-80
2022/12/21 09:41:38;;;;;;;;;;;1.10;99.90;;;;;;5028355;28;20012;-81
2022/12/21 09:44:19;;;;;;;;;;;1.10;99.90;;;;;;5029588;28;20273;-80
2022/12/21 09:46:45;;;;;;;;;;;1.20;99.90;;;;;;5039009;28;20269;-80
2022/12/21 09:49:16;;;;;;;;;;;1.20;99.90;;;;;;5039321;28;20284;-80
2022/12/21 09:51:45;;;;;;;;;;;1.10;99.90;;;;;;5038459;28;19945;-82
2022/12/21 09:54:15;;;;;;;;;;;1.10;99.90;;;;;;5024835;28;19913;-81
2022/12/21 09:56:42;;;;;;;;;;;1.10;99.90;;;;;;5029739;28;19910;-81
2022/12/21 09:59:13;;;;;;;;;;;1.10;99.90;;;;;;5032692;28;20397;-80
2022/12/21 10:01:45;;;;;;;;;;;1.10;99.90;;;;;;5024943;28;20487;-81
2022/12/21 10:04:10;;;;;;;;;;;1.20;99.90;;;;;;5024366;28;19917;-80
2022/12/21 10:06:39;;;;;;;;;;;1.20;99.90;;;;;;5031496;28;19964;-80
2022/12/21 10:09:22;;;;;;;;;;;1.20;99.90;;;;;;5032588;28;19944;-80
2022/12/21 10:12:06;;;;;;;;;;;1.20;99.90;;;;;;5020119;28;19909;-80
2022/12/21 10:14:52;;;;;;;;;;;1.20;99.90;;;;;;5028665;28;19976;-80
2022/12/21 10:17:20;;;;;;;;;;;1.20;99.90;;;;;;5027273;28;19910;-79
2022/12/21 10:20:16;;;;;;;;;;;1.30;99.90;;;;;;5025141;28;19964;-78
2022/12/21 10:22:45;;;;;;;;;;;1.30;99.90;;;;;;5019160;28;20345;-80
2022/12/21 10:25:16;;;;;;;;;;;1.30;99.90;;;;;;5032308;28;19909;-80
2022/12/21 10:27:45;;;;;;;;;;;1.30;99.90;;;;;;5030010;28;19920;-79
2022/12/21 10:30:15;;;;;;;;;;;1.30;99.90;;;;;;5026624;28;19909;-80
2022/12/21 10:32:42;;;;;;;;;;;1.40;99.90;;;;;;5024117;28;19920;-79
2022/12/21 10:35:16;;;;;;;;;;;1.40;99.90;;;;;;5033349;28;19931;-79
2022/12/21 10:37:42;;;;;;;;;;;1.40;99.90;;;;;;5033458;28;19916;-80
2022/12/21 10:40:10;;;;;;;;;;;1.40;99.90;;;;;;5034044;28;19913;-80
2022/12/21 10:42:37;;;;;;;;;;;1.50;99.90;;;;;;5028751;28;19909;-80
2022/12/21 10:45:03;;;;;;;;;;;1.50;99.90;;;;;;5030939;28;19967;-80
2022/12/21 10:47:29;;;;;;;;;;;1.50;99.90;;;;;;5022082;28;19976;-79
2022/12/21 10:50:10;;;;;;;;;;;1.50;99.90;;;;;;5035279;28;19968;-79
2022/12/21 10:52:37;;;;;;;;;;;1.50;99.90;;;;;;5035023;28;19910;-80
2022/12/21 10:55:04;;;;;;;;;;;1.60;99.90;;;;;;5034069;28;20377;-80
2022/12/21 10:57:32;;;;;;;;;;;1.60;99.90;;;;;;5025739;28;20293;-78
2022/12/21 11:00:19;;;;;;;;;;;1.60;99.90;;;;;;5031110;28;19917;-80
2022/12/21 11:02:45;;;;;;;;;;;1.60;99.90;;;;;;5020943;28;20369;-80
2022/12/21 11:05:25;;;;;;;;;;;1.70;99.90;;;;;;5023030;28;19960;-80
2022/12/21 11:07:51;;;;;;;;;;;1.70;99.90;;;;;;5027824;28;20390;-80
2022/12/21 11:10:27;;;;;;;;;;;1.80;99.90;;;;;;5026662;28;19913;-80
2022/12/21 11:12:53;;;;;;;;;;;1.80;99.90;;;;;;5023553;28;19910;-79
2022/12/21 11:15:20;;;;;;;;;;;1.80;99.90;;;;;;5029253;28;19933;-80
2022/12/21 11:17:45;;;;;;;;;;;1.80;99.90;;;;;;5027953;28;19964;-79
2022/12/21 11:20:16;;;;;;;;;;;1.80;99.90;;;;;;5027938;28;19913;-79
2022/12/21 11:22:45;;;;;;;;;;;1.70;99.90;;;;;;5024076;28;19917;-79
2022/12/21 11:25:17;;;;;;;;;;;1.70;99.90;;;;;;5029013;28;19915;-79
2022/12/21 11:27:44;;;;;;;;;;;1.80;99.90;;;;;;5022717;28;19918;-79
2022/12/21 11:30:17;;;;;;;;;;;1.70;99.90;;;;;;5026911;28;19917;-80
2022/12/21 11:32:44;;;;;;;;;;;1.80;99.90;;;;;;5018432;28;19910;-80
2022/12/21 11:35:19;;;;;;;;;;;1.80;99.90;;;;;;5020722;28;19909;-79
2022/12/21 11:37:46;;;;;;;;;;;1.80;99.90;;;;;;5027457;28;19913;-79
2022/12/21 11:40:11;;;;;;;;;;;1.90;99.90;;;;;;5017456;28;19909;-80
2022/12/21 11:43:07;;;;;;;;;;;1.90;99.90;;;;;;5017319;28;20008;-80
2022/12/21 11:45:35;;;;;;;;;;;1.90;99.90;;;;;;5003914;28;19916;-79
2022/12/21 11:48:14;;;;;;;;;;;2.00;99.90;;;;;;5018489;28;20012;-79
2022/12/21 11:51:00;;;;;;;;;;;2.00;99.90;;;;;;5027651;28;19917;-79
2022/12/21 11:53:54;;;;;;;;;;;2.10;99.90;;;;;;5016057;28;20000;-79
2022/12/21 11:56:35;;;;;;;;;;;2.20;99.90;;;;;;5000793;28;19973;-79
2022/12/21 11:59:19;;;;;;;;;;;2.20;99.90;;;;;;5027869;28;19910;-78
2022/12/21 12:01:47;;;;;;;;;;;2.20;99.90;;;;;;5028196;28;20340;-79
2022/12/21 12:04:13;;;;;;;;;;;2.20;99.90;;;;;;5017448;28;20000;-79
2022/12/21 12:06:59;;;;;;;;;;;2.30;99.90;;;;;;5017214;28;20036;-79
2022/12/21 12:09:24;;;;;;;;;;;2.20;99.90;;;;;;4998323;28;19949;-79
2022/12/21 12:11:50;;;;;;;;;;;2.30;99.90;;;;;;5028556;28;19916;-79
2022/12/21 12:14:32;;;;;;;;;;;2.30;99.90;;;;;;5030144;28;20473;-79
2022/12/21 12:17:16;;;;;;;;;;;2.30;99.90;;;;;;5043841;28;19917;-78
2022/12/21 12:19:51;;;;;;;;;;;2.30;99.90;;;;;;5026288;28;19909;-79
2022/12/21 12:22:25;;;;;;;;;;;2.40;99.90;;;;;;5027988;28;19995;-78
2022/12/21 12:25:09;;;;;;;;;;;2.40;99.90;;;;;;5041019;28;20280;-78
2022/12/21 12:27:55;;;;;;;;;;;2.50;99.90;;;;;;5035793;28;19924;-78
2022/12/21 12:30:21;;;;;;;;;;;2.50;99.90;;;;;;5030829;28;19909;-78
2022/12/21 12:32:47;;;;;;;;;;;2.50;99.90;;;;;;5022639;28;19917;-78
2022/12/21 12:35:31;;;;;;;;;;;2.50;99.90;;;;;;5029250;28;19933;-78
2022/12/21 12:38:10;;;;;;;;;;;2.50;99.90;;;;;;5037963;28;19980;-78
2022/12/21 12:40:48;;;;;;;;;;;2.50;99.90;;;;;;5034909;28;19909;-79
2022/12/21 12:43:16;;;;;;;;;;;2.50;99.90;;;;;;5022604;28;19909;-78
2022/12/21 12:45:42;;;;;;;;;;;2.50;99.90;;;;;;5022065;28;19917;-78
2022/12/21 12:48:19;;;;;;;;;;;2.50;99.90;;;;;;5023069;28;19909;-78
2022/12/21 12:51:03;;;;;;;;;;;2.50;99.90;;;;;;5033147;28;19909;-78
2022/12/21 12:53:31;;;;;;;;;;;2.50;99.90;;;;;;5042351;28;19909;-78
2022/12/21 12:56:09;;;;;;;;;;;2.50;99.90;;;;;;5033482;28;19932;-78
2022/12/21 12:58:58;;;;;;;;;;;2.50;99.90;;;;;;5032013;28;20357;-78
2022/12/21 13:01:35;;;;;;;;;;;2.50;99.90;;;;;;5015727;28;19956;-79
2022/12/21 13:04:20;;;;;;;;;;;2.50;99.90;;;;;;5030587;28;19909;-78
2022/12/21 13:06:52;;;;;;;;;;;2.50;99.90;;;;;;5032369;28;20400;-78
2022/12/21 13:09:30;;;;;;;;;;;2.50;99.90;;;;;;5029448;28;19910;-78
2022/12/21 13:12:04;;;;;;;;;;;2.50;99.90;;;;;;5023170;28;19913;-78
2022/12/21 13:14:40;;;;;;;;;;;2.50;99.90;;;;;;5024939;28;19917;-78
2022/12/21 13:17:09;;;;;;;;;;;2.50;99.90;;;;;;5019950;28;20384;-78
2022/12/21 13:19:35;;;;;;;;;;;2.50;99.90;;;;;;5021759;28;20385;-78
2022/12/21 13:22:03;;;;;;;;;;;2.50;99.90;;;;;;5035767;28;19921;-78
2022/12/21 13:24:41;;;;;;;;;;;2.50;99.90;;;;;;5020606;28;19959;-78
2022/12/21 13:27:09;;;;;;;;;;;2.40;99.90;;;;;;5020744;28;19920;-78
2022/12/21 13:29:41;;;;;;;;;;;2.40;99.90;;;;;;5021062;28;20258;-78
2022/12/21 13:32:14;;;;;;;;;;;2.40;99.90;;;;;;5021087;28;20369;-79
2022/12/21 13:34:42;;;;;;;;;;;2.40;99.90;;;;;;5020694;28;19910;-78
2022/12/21 13:37:12;;;;;;;;;;;2.40;99.90;;;;;;5019753;28;19910;-78
2022/12/21 13:39:42;;;;;;;;;;;2.40;99.90;;;;;;5020362;28;19959;-78
2022/12/21 13:42:15;;;;;;;;;;;2.40;99.90;;;;;;5020563;28;19909;-78
2022/12/21 13:44:40;;;;;;;;;;;2.40;99.90;;;;;;5020291;28;19910;-78
2022/12/21 13:47:07;;;;;;;;;;;2.30;99.90;;;;;;5017890;28;20008;-78
2022/12/21 13:49:32;;;;;;;;;;;2.30;99.90;;;;;;5021007;28;19921;-78
2022/12/21 13:52:06;;;;;;;;;;;2.40;99.90;;;;;;5039660;28;19909;-78
2022/12/21 13:54:41;;;;;;;;;;;2.30;99.90;;;;;;5040773;28;19967;-78
2022/12/21 13:57:25;;;;;;;;;;;2.30;99.90;;;;;;5038826;28;19909;-78
2022/12/21 13:59:54;;;;;;;;;;;2.40;99.90;;;;;;5036432;28;19923;-78
2022/12/21 14:02:19;;;;;;;;;;;2.30;99.90;;;;;;5028415;28;19914;-78
2022/12/21 14:04:46;;;;;;;;;;;2.30;99.90;;;;;;5029473;28;19910;-78
2022/12/21 14:07:15;;;;;;;;;;;2.30;99.90;;;;;;5026078;28;19972;-78
2022/12/21 14:09:40;;;;;;;;;;;2.30;99.90;;;;;;5024984;28;19980;-79
2022/12/21 14:12:32;;;;;;;;;;;2.30;99.90;;;;;;5025288;28;19964;-78
2022/12/21 14:15:04;;;;;;;;;;;2.30;99.90;;;;;;5025333;28;19909;-78
2022/12/21 14:17:34;;;;;;;;;;;2.20;99.90;;;;;;5026946;28;19913;-78
2022/12/21 14:20:07;;;;;;;;;;;2.20;99.90;;;;;;5028816;28;20423;-78
2022/12/21 14:22:41;;;;;;;;;;;2.20;99.90;;;;;;5032295;28;19921;-79
2022/12/21 14:25:15;;;;;;;;;;;2.20;99.90;;;;;;5027978;28;20000;-78
2022/12/21 14:27:41;;;;;;;;;;;2.10;99.90;;;;;;5026115;28;19935;-78
2022/12/21 14:30:14;;;;;;;;;;;2.10;99.90;;;;;;5025245;28;19940;-78
2022/12/21 14:32:40;;;;;;;;;;;2.10;99.90;;;;;;5029637;28;19909;-78
2022/12/21 14:35:22;;;;;;;;;;;2.10;99.90;;;;;;5029195;28;20013;-79
2022/12/21 14:38:07;;;;;;;;;;;2.10;99.90;;;;;;5023410;28;19918;-79
2022/12/21 14:40:52;;;;;;;;;;;2.10;99.90;;;;;;5021639;28;20124;-78
2022/12/21 14:43:18;;;;;;;;;;;2.00;99.90;;;;;;5026878;28;20000;-79
2022/12/21 14:45:45;;;;;;;;;;;2.00;99.90;;;;;;5026480;28;19949;-79
2022/12/21 14:48:40;;;;;;;;;;;2.00;99.90;;;;;;5020880;28;19913;-79
2022/12/21 14:51:07;;;;;;;;;;;2.00;99.90;;;;;;5018676;28;20292;-79